createdAt,value
2022-09-04T00:02:23.391Z,9.00
2022-09-04T00:08:03.007Z,8.82
2022-09-04T00:13:18.340Z,7.45
2022-09-04T00:18:34.005Z,9.60
2022-09-04T00:23:57.150Z,8.13
2022-09-04T00:29:06.236Z,9.38
2022-09-04T00:34:29.339Z,8.10
2022-09-04T00:39:43.720Z,8.32
2022-09-04T00:45:13.820Z,9.93
2022-09-04T00:50:31.548Z,8.02
2022-09-04T00:56:01.553Z,8.82
2022-09-04T01:01:04.506Z,7.53
2022-09-04T01:06:21.907Z,7.25
2022-09-04T01:11:34.127Z,8.30
2022-09-04T01:16:44.088Z,10.77
2022-09-04T01:22:13.843Z,8.90
2022-09-04T01:27:26.717Z,9.95
2022-09-04T01:32:49.705Z,7.70
2022-09-04T01:38:17.992Z,9.02
2022-09-04T01:43:22.762Z,9.05
2022-09-04T01:48:59.229Z,9.43
2022-09-04T01:54:16.961Z,9.05
2022-09-04T01:59:29.929Z,10.20
2022-09-04T02:04:53.651Z,8.35
2022-09-04T02:10:37.140Z,7.95
2022-09-04T02:16:04.806Z,9.10
2022-09-04T02:21:54.990Z,7.55
2022-09-04T02:27:03.004Z,8.32
2022-09-04T02:32:21.429Z,8.02
2022-09-04T02:37:55.631Z,8.95
2022-09-04T02:43:24.980Z,9.48
2022-09-04T02:48:53.921Z,8.10
2022-09-04T02:54:06.796Z,9.93
2022-09-04T02:59:33.014Z,8.40
2022-09-04T03:05:00.525Z,8.95
2022-09-04T03:10:25.009Z,8.82
2022-09-04T03:15:43.895Z,9.82
2022-09-04T03:20:52.647Z,8.57
2022-09-04T03:26:15.206Z,8.80
2022-09-04T03:31:32.625Z,10.50
2022-09-04T03:36:43.638Z,10.10
2022-09-04T03:41:45.764Z,9.25
2022-09-04T03:47:00.024Z,9.48
2022-09-04T03:52:18.052Z,9.57
2022-09-04T03:57:41.549Z,11.32
2022-09-04T04:03:08.547Z,12.60
2022-09-04T04:08:33.553Z,8.85
2022-09-04T04:14:01.170Z,13.38
2022-09-04T04:19:22.321Z,9.38
2022-09-04T04:24:57.444Z,10.27
2022-09-04T04:30:12.317Z,8.75
2022-09-04T04:35:28.372Z,9.60
2022-09-04T04:40:39.255Z,11.23
2022-09-04T04:45:50.280Z,9.50
2022-09-04T04:51:06.068Z,10.88
2022-09-04T04:56:26.276Z,10.48
2022-09-04T05:01:34.316Z,11.23
2022-09-04T05:07:01.494Z,8.95
2022-09-04T05:12:34.381Z,9.05
2022-09-04T05:18:22.733Z,11.02
2022-09-04T05:23:56.232Z,10.77
2022-09-04T05:29:04.746Z,8.93
2022-09-04T05:34:20.709Z,9.45
2022-09-04T05:39:30.526Z,10.63
2022-09-04T05:45:01.315Z,10.30
2022-09-04T05:50:24.728Z,11.85
2022-09-04T05:55:35.851Z,10.50
2022-09-04T06:00:51.819Z,11.18
2022-09-04T06:06:13.865Z,9.65
2022-09-04T06:11:43.677Z,11.57
2022-09-04T06:17:10.395Z,13.00
2022-09-04T06:22:52.777Z,12.95
2022-09-04T06:28:09.032Z,12.52
2022-09-04T06:33:23.006Z,17.98
2022-09-04T06:39:19.533Z,14.02
2022-09-04T06:44:31.937Z,16.08
2022-09-04T06:49:56.864Z,17.75
2022-09-04T06:55:00.545Z,20.05
2022-09-04T07:00:08.840Z,21.75
2022-09-04T07:05:29.544Z,20.00
2022-09-04T07:10:39.968Z,19.75
2022-09-04T07:16:00.653Z,20.57
2022-09-04T07:21:30.391Z,22.57
2022-09-04T07:26:47.370Z,19.05
2022-09-04T07:32:04.687Z,21.40
2022-09-04T07:37:27.149Z,18.40
2022-09-04T07:42:32.644Z,22.05
2022-09-04T07:47:43.216Z,22.13
2022-09-04T07:53:06.366Z,22.27
2022-09-04T07:58:32.199Z,19.70
2022-09-04T08:03:53.976Z,18.08
2022-09-04T08:09:04.129Z,18.52
2022-09-04T08:14:20.802Z,20.27
2022-09-04T08:19:40.659Z,15.98
2022-09-04T08:25:20.319Z,20.67
2022-09-04T08:30:22.922Z,20.85
2022-09-04T08:35:49.173Z,24.77
2022-09-04T08:41:29.040Z,19.13
2022-09-04T08:47:01.770Z,20.02
2022-09-04T08:52:41.668Z,19.95
2022-09-04T08:57:55.423Z,19.20
2022-09-04T09:03:23.924Z,21.10
2022-09-04T09:09:03.728Z,21.23
2022-09-04T09:14:21.395Z,22.02
2022-09-04T09:19:59.166Z,19.15
2022-09-04T09:25:34.530Z,20.42
2022-09-04T09:31:01.870Z,17.00
2022-09-04T09:36:35.402Z,20.75
2022-09-04T09:42:06.523Z,22.05
2022-09-04T09:47:38.023Z,14.67
2022-09-04T09:53:11.209Z,18.80
2022-09-04T09:58:44.426Z,15.57
2022-09-04T10:04:14.104Z,17.40
2022-09-04T10:09:53.137Z,10.73
2022-09-04T10:15:00.879Z,12.35
2022-09-04T10:20:46.169Z,14.25
2022-09-04T10:26:09.545Z,8.73
2022-09-04T10:31:53.393Z,10.90
2022-09-04T10:37:23.350Z,5.75
2022-09-04T10:42:43.287Z,5.88
2022-09-04T10:48:09.939Z,8.32
2022-09-04T10:53:41.532Z,9.30
2022-09-04T11:04:35.373Z,5.85
2022-09-04T11:09:55.844Z,6.07
2022-09-04T11:15:19.292Z,5.88
2022-09-04T11:20:52.158Z,5.30
2022-09-04T11:26:15.438Z,6.30
2022-09-04T11:31:35.595Z,4.50
2022-09-04T11:36:59.254Z,5.00
2022-09-04T11:42:33.064Z,4.90
2022-09-04T11:47:38.096Z,4.88
2022-09-04T11:53:14.598Z,3.55
2022-09-04T11:58:40.258Z,5.47
2022-09-04T12:03:57.549Z,3.80
2022-09-04T12:09:41.188Z,3.40
2022-09-04T12:15:09.618Z,5.38
2022-09-04T12:20:26.816Z,3.63
2022-09-04T12:26:00.211Z,5.25
2022-09-04T12:31:33.944Z,3.70
2022-09-04T12:37:14.367Z,3.08
2022-09-04T12:42:42.043Z,3.23
2022-09-04T12:48:27.705Z,5.70
2022-09-04T12:53:44.564Z,3.25
2022-09-04T12:59:01.841Z,3.38
2022-09-04T13:04:20.854Z,3.30
2022-09-04T13:09:36.454Z,3.42
2022-09-04T13:15:09.630Z,2.75
2022-09-04T13:20:30.436Z,3.88
2022-09-04T13:25:52.349Z,2.80
2022-09-04T13:31:20.325Z,2.40
2022-09-04T13:36:30.767Z,1.98
2022-09-04T13:41:42.189Z,2.55
2022-09-04T13:46:52.849Z,2.10
2022-09-04T13:52:06.704Z,1.67
2022-09-04T13:57:28.265Z,1.73
2022-09-04T14:02:31.660Z,4.78
2022-09-04T14:07:44.695Z,2.63
2022-09-04T14:12:57.564Z,2.90
2022-09-04T14:18:18.792Z,2.85
2022-09-04T14:23:40.362Z,3.13
2022-09-04T14:28:49.013Z,2.80
2022-09-04T14:34:03.833Z,4.37
2022-09-04T14:39:27.411Z,3.15
2022-09-04T14:44:55.095Z,4.78
2022-09-04T14:50:02.397Z,3.13
2022-09-04T14:55:05.433Z,2.95
2022-09-04T15:00:18.162Z,2.50
2022-09-04T15:05:29.187Z,3.55
2022-09-04T15:10:49.778Z,2.80
2022-09-04T15:15:59.136Z,1.75
2022-09-04T15:21:17.279Z,3.58
2022-09-04T15:26:34.222Z,2.10
2022-09-04T15:31:39.863Z,1.95
2022-09-04T15:36:42.000Z,3.70
2022-09-04T15:41:49.861Z,2.15
2022-09-04T15:47:18.198Z,6.50
2022-09-04T15:52:48.400Z,4.07
2022-09-04T15:58:09.075Z,3.83
2022-09-04T16:03:20.847Z,6.22
2022-09-04T16:08:46.994Z,47.53
2022-09-04T16:14:08.326Z,6.57
2022-09-04T16:19:21.871Z,3.35
2022-09-04T16:24:43.611Z,22.25
2022-09-04T16:29:53.420Z,10.10
2022-09-04T16:35:01.785Z,19.38
2022-09-04T16:40:21.654Z,18.35
2022-09-04T16:45:34.518Z,6.97
2022-09-04T16:51:09.812Z,4.82
2022-09-04T16:56:36.821Z,4.18
2022-09-04T17:02:24.595Z,3.08
2022-09-04T17:07:42.952Z,2.45
2022-09-04T17:12:53.257Z,4.95
2022-09-04T17:17:56.264Z,3.55
2022-09-04T17:29:03.037Z,4.97
2022-09-04T17:29:29.486Z,4.68
2022-09-04T17:40:12.367Z,7.70
2022-09-04T17:40:48.574Z,4.05
2022-09-04T17:45:51.178Z,4.00
2022-09-04T17:50:58.766Z,4.55
2022-09-04T17:56:29.818Z,4.68
2022-09-04T18:01:50.562Z,4.20
2022-09-04T18:06:55.585Z,4.28
2022-09-04T18:12:11.058Z,3.15
2022-09-04T18:17:22.256Z,4.05
2022-09-04T18:22:33.196Z,4.43
2022-09-04T18:27:45.029Z,3.80
2022-09-04T18:37:23.853Z,3.40
2022-09-04T18:38:29.033Z,5.55
2022-09-04T18:50:20.804Z,5.40
2022-09-04T18:50:35.749Z,5.97
2022-09-04T18:54:49.746Z,4.28
2022-09-04T19:00:08.706Z,7.03
2022-09-04T19:05:15.309Z,9.00
2022-09-04T19:10:35.359Z,4.18
2022-09-04T19:15:53.917Z,4.80
2022-09-04T19:21:09.934Z,7.50
2022-09-04T19:26:55.395Z,8.83
2022-09-04T19:32:06.003Z,7.07
2022-09-04T19:37:58.431Z,6.68
2022-09-04T19:46:08.897Z,5.30
2022-09-04T19:48:20.619Z,6.03
2022-09-04T19:53:42.139Z,5.47
2022-09-04T19:58:55.322Z,5.50
2022-09-04T20:04:02.821Z,6.03
2022-09-04T20:09:11.564Z,7.75
2022-09-04T20:14:41.932Z,6.00
2022-09-04T20:19:49.359Z,6.30
2022-09-04T20:25:12.175Z,7.55
2022-09-04T20:30:21.133Z,10.23
2022-09-04T20:35:44.260Z,18.15
2022-09-04T20:40:52.193Z,19.35
2022-09-04T20:48:37.683Z,17.45
2022-09-04T20:53:04.553Z,10.27
2022-09-04T21:01:05.474Z,14.90
2022-09-04T21:03:17.735Z,16.30
2022-09-04T21:08:37.930Z,8.88
2022-09-04T21:13:51.505Z,8.32
2022-09-04T21:19:28.215Z,9.23
2022-09-04T21:24:51.724Z,7.85
2022-09-04T21:30:18.358Z,7.22
2022-09-04T21:35:30.461Z,6.05
2022-09-04T21:40:54.187Z,7.80
2022-09-04T21:46:20.521Z,5.72
2022-09-04T21:51:44.875Z,5.18
2022-09-04T22:02:29.876Z,7.40
2022-09-04T22:03:04.091Z,6.47
2022-09-04T22:13:10.930Z,4.53
2022-09-04T22:13:50.396Z,7.70
2022-09-04T22:19:17.579Z,9.23
2022-09-04T22:24:41.692Z,5.55
2022-09-04T22:30:05.869Z,5.32
2022-09-04T22:35:41.421Z,5.45
2022-09-04T22:41:04.984Z,5.05
2022-09-04T22:46:18.916Z,5.63
2022-09-04T22:52:17.294Z,7.90
2022-09-04T22:57:27.138Z,6.00
2022-09-04T23:03:09.617Z,8.13
2022-09-04T23:13:52.295Z,8.93
2022-09-04T23:14:34.184Z,6.30
2022-09-04T23:26:31.251Z,6.70
2022-09-04T23:26:48.842Z,5.18
2022-09-04T23:31:37.601Z,6.32
2022-09-04T23:37:08.596Z,6.65
2022-09-04T23:42:36.287Z,7.90
2022-09-04T23:48:23.145Z,5.78
2022-09-04T23:53:35.067Z,7.53
2022-09-04T23:59:09.906Z,6.30
